sensor_id;sensor_type;location;lat;lon;timestamp;pressure;altitude;pressure_sealevel;temperature;humidity
12624;BME280;6377;42.836;23.998;2024-03-08T00:01:07;95828.91;;;5.69;100.00
12624;BME280;6377;42.836;23.998;2024-03-08T00:03:35;95820.59;;;5.74;100.00
12624;BME280;6377;42.836;23.998;2024-03-08T00:06:03;95824.88;;;5.75;100.00
12624;BME280;6377;42.836;23.998;2024-03-08T00:08:31;95817.69;;;5.77;100.00
12624;BME280;6377;42.836;23.998;2024-03-08T00:10:59;95816.28;;;5.82;100.00
12624;BME280;6377;42.836;23.998;2024-03-08T00:13:26;95759.91;;;5.59;100.00
12624;BME280;6377;42.836;23.998;2024-03-08T00:15:53;95805.47;;;5.95;100.00
12624;BME280;6377;42.836;23.998;2024-03-08T00:18:23;95808.34;;;6.01;100.00
12624;BME280;6377;42.836;23.998;2024-03-08T00:20:51;95807.50;;;6.01;100.00
12624;BME280;6377;42.836;23.998;2024-03-08T00:23:19;95807.63;;;5.99;100.00
12624;BME280;6377;42.836;23.998;2024-03-08T00:25:46;95798.19;;;5.89;100.00
12624;BME280;6377;42.836;23.998;2024-03-08T00:28:13;95807.06;;;5.78;100.00
12624;BME280;6377;42.836;23.998;2024-03-08T00:30:42;95814.25;;;5.66;100.00
12624;BME280;6377;42.836;23.998;2024-03-08T00:33:11;95806.88;;;5.52;100.00
12624;BME280;6377;42.836;23.998;2024-03-08T00:35:38;95810.13;;;5.37;100.00
12624;BME280;6377;42.836;23.998;2024-03-08T00:38:07;95815.94;;;5.31;100.00
12624;BME280;6377;42.836;23.998;2024-03-08T00:40:34;95809.03;;;5.30;100.00
12624;BME280;6377;42.836;23.998;2024-03-08T00:43:01;95800.72;;;5.34;100.00
12624;BME280;6377;42.836;23.998;2024-03-08T00:45:30;95802.09;;;5.38;100.00
12624;BME280;6377;42.836;23.998;2024-03-08T00:47:57;95804.06;;;5.36;100.00
12624;BME280;6377;42.836;23.998;2024-03-08T00:50:24;95801.56;;;5.35;100.00
12624;BME280;6377;42.836;23.998;2024-03-08T00:52:51;95803.34;;;5.34;100.00
12624;BME280;6377;42.836;23.998;2024-03-08T00:55:20;95799.75;;;5.35;100.00
12624;BME280;6377;42.836;23.998;2024-03-08T00:57:47;95777.06;;;5.17;100.00
12624;BME280;6377;42.836;23.998;2024-03-08T01:00:15;95802.13;;;5.29;100.00
12624;BME280;6377;42.836;23.998;2024-03-08T01:02:42;95805.84;;;5.26;100.00
12624;BME280;6377;42.836;23.998;2024-03-08T01:05:09;95795.66;;;5.23;100.00
12624;BME280;6377;42.836;23.998;2024-03-08T01:07:36;95803.25;;;5.26;100.00
12624;BME280;6377;42.836;23.998;2024-03-08T01:10:04;95798.28;;;5.23;100.00
12624;BME280;6377;42.836;23.998;2024-03-08T01:12:36;95801.59;;;5.25;100.00
12624;BME280;6377;42.836;23.998;2024-03-08T01:15:04;95796.66;;;5.22;100.00
12624;BME280;6377;42.836;23.998;2024-03-08T01:17:31;95794.69;;;5.24;100.00
12624;BME280;6377;42.836;23.998;2024-03-08T01:19:58;95793.03;;;5.23;100.00
12624;BME280;6377;42.836;23.998;2024-03-08T01:22:25;95786.84;;;5.24;100.00
12624;BME280;6377;42.836;23.998;2024-03-08T01:24:53;95790.00;;;5.28;100.00
12624;BME280;6377;42.836;23.998;2024-03-08T01:27:21;95786.22;;;5.40;100.00
12624;BME280;6377;42.836;23.998;2024-03-08T01:29:49;95785.38;;;5.49;100.00
12624;BME280;6377;42.836;23.998;2024-03-08T01:32:16;95791.69;;;5.56;100.00
12624;BME280;6377;42.836;23.998;2024-03-08T01:34:45;95782.56;;;5.60;100.00
12624;BME280;6377;42.836;23.998;2024-03-08T01:37:12;95787.91;;;5.68;100.00
12624;BME280;6377;42.836;23.998;2024-03-08T01:39:40;95780.69;;;5.70;100.00
12624;BME280;6377;42.836;23.998;2024-03-08T01:42:07;95779.06;;;5.69;100.00
12624;BME280;6377;42.836;23.998;2024-03-08T01:44:37;95780.56;;;5.72;100.00
12624;BME280;6377;42.836;23.998;2024-03-08T01:47:06;95755.09;;;5.54;100.00
12624;BME280;6377;42.836;23.998;2024-03-08T01:49:34;95793.09;;;5.78;100.00
12624;BME280;6377;42.836;23.998;2024-03-08T01:52:01;95784.03;;;5.72;100.00
12624;BME280;6377;42.836;23.998;2024-03-08T01:54:28;95780.84;;;5.69;100.00
12624;BME280;6377;42.836;23.998;2024-03-08T01:56:56;95782.41;;;5.61;100.00
12624;BME280;6377;42.836;23.998;2024-03-08T01:59:24;95784.38;;;5.50;100.00
12624;BME280;6377;42.836;23.998;2024-03-08T02:01:55;95786.38;;;5.38;100.00
12624;BME280;6377;42.836;23.998;2024-03-08T02:04:24;95787.47;;;5.36;100.00
12624;BME280;6377;42.836;23.998;2024-03-08T02:06:51;95764.94;;;5.06;100.00
12624;BME280;6377;42.836;23.998;2024-03-08T02:09:18;95780.94;;;5.13;100.00
12624;BME280;6377;42.836;23.998;2024-03-08T02:11:46;95779.44;;;5.10;100.00
12624;BME280;6377;42.836;23.998;2024-03-08T02:14:13;95786.03;;;5.14;100.00
12624;BME280;6377;42.836;23.998;2024-03-08T02:16:40;95790.31;;;5.15;100.00
12624;BME280;6377;42.836;23.998;2024-03-08T02:19:07;95784.78;;;5.18;100.00
12624;BME280;6377;42.836;23.998;2024-03-08T02:21:36;95782.53;;;5.23;100.00
12624;BME280;6377;42.836;23.998;2024-03-08T02:24:05;95791.34;;;5.32;100.00
12624;BME280;6377;42.836;23.998;2024-03-08T02:26:33;95785.97;;;5.33;100.00
12624;BME280;6377;42.836;23.998;2024-03-08T02:29:00;95804.19;;;5.35;100.00
12624;BME280;6377;42.836;23.998;2024-03-08T02:31:28;95790.41;;;5.23;100.00
12624;BME280;6377;42.836;23.998;2024-03-08T02:33:55;95774.88;;;5.02;100.00
12624;BME280;6377;42.836;23.998;2024-03-08T02:36:22;95793.38;;;5.11;100.00
12624;BME280;6377;42.836;23.998;2024-03-08T02:38:50;95793.38;;;5.11;100.00
12624;BME280;6377;42.836;23.998;2024-03-08T02:41:18;95778.50;;;5.01;100.00
12624;BME280;6377;42.836;23.998;2024-03-08T02:43:45;95791.25;;;5.14;100.00
12624;BME280;6377;42.836;23.998;2024-03-08T02:46:13;95790.03;;;5.08;100.00
12624;BME280;6377;42.836;23.998;2024-03-08T02:48:41;95802.47;;;4.97;100.00
12624;BME280;6377;42.836;23.998;2024-03-08T02:51:08;95807.88;;;4.95;100.00
12624;BME280;6377;42.836;23.998;2024-03-08T02:53:36;95803.31;;;4.97;100.00
12624;BME280;6377;42.836;23.998;2024-03-08T02:56:05;95809.94;;;5.01;100.00
12624;BME280;6377;42.836;23.998;2024-03-08T02:58:34;95804.97;;;4.98;100.00
12624;BME280;6377;42.836;23.998;2024-03-08T03:01:01;95809.66;;;5.04;100.00
12624;BME280;6377;42.836;23.998;2024-03-08T03:03:29;95796.00;;;5.11;100.00
12624;BME280;6377;42.836;23.998;2024-03-08T03:05:56;95806.72;;;5.17;100.00
12624;BME280;6377;42.836;23.998;2024-03-08T03:08:24;95808.22;;;5.20;100.00
12624;BME280;6377;42.836;23.998;2024-03-08T03:10:51;95807.53;;;5.27;100.00
12624;BME280;6377;42.836;23.998;2024-03-08T03:13:19;95814.56;;;5.27;100.00
12624;BME280;6377;42.836;23.998;2024-03-08T03:15:47;95808.00;;;5.03;100.00
12624;BME280;6377;42.836;23.998;2024-03-08T03:18:14;95814.78;;;4.87;100.00
12624;BME280;6377;42.836;23.998;2024-03-08T03:20:41;95817.53;;;4.95;100.00
12624;BME280;6377;42.836;23.998;2024-03-08T03:23:08;95819.59;;;4.91;100.00
12624;BME280;6377;42.836;23.998;2024-03-08T03:25:39;95824.03;;;4.62;100.00
12624;BME280;6377;42.836;23.998;2024-03-08T03:28:07;95829.56;;;4.40;100.00
12624;BME280;6377;42.836;23.998;2024-03-08T03:30:38;95834.34;;;4.35;100.00
12624;BME280;6377;42.836;23.998;2024-03-08T03:33:05;95833.81;;;4.50;100.00
12624;BME280;6377;42.836;23.998;2024-03-08T03:35:32;95824.47;;;4.58;100.00
12624;BME280;6377;42.836;23.998;2024-03-08T03:38:00;95832.19;;;4.69;100.00
12624;BME280;6377;42.836;23.998;2024-03-08T03:40:32;95835.91;;;4.66;100.00
12624;BME280;6377;42.836;23.998;2024-03-08T03:42:59;95835.50;;;4.51;100.00
12624;BME280;6377;42.836;23.998;2024-03-08T03:45:27;95831.47;;;4.47;100.00
12624;BME280;6377;42.836;23.998;2024-03-08T03:47:55;95835.06;;;4.46;100.00
12624;BME280;6377;42.836;23.998;2024-03-08T03:50:22;95831.34;;;4.59;100.00
12624;BME280;6377;42.836;23.998;2024-03-08T03:52:50;95833.56;;;4.53;100.00
12624;BME280;6377;42.836;23.998;2024-03-08T03:55:18;95797.28;;;4.30;100.00
12624;BME280;6377;42.836;23.998;2024-03-08T03:57:45;95834.50;;;4.52;100.00
12624;BME280;6377;42.836;23.998;2024-03-08T04:00:13;95845.00;;;4.43;100.00
12624;BME280;6377;42.836;23.998;2024-03-08T04:02:40;95846.78;;;4.33;100.00
12624;BME280;6377;42.836;23.998;2024-03-08T04:05:09;95846.25;;;4.48;100.00
12624;BME280;6377;42.836;23.998;2024-03-08T04:07:38;95850.22;;;4.52;100.00
12624;BME280;6377;42.836;23.998;2024-03-08T04:10:07;95849.94;;;4.56;100.00
12624;BME280;6377;42.836;23.998;2024-03-08T04:12:34;95806.94;;;4.20;100.00
12624;BME280;6377;42.836;23.998;2024-03-08T04:15:01;95851.75;;;4.65;100.00
12624;BME280;6377;42.836;23.998;2024-03-08T04:17:29;95858.63;;;4.56;100.00
12624;BME280;6377;42.836;23.998;2024-03-08T04:19:56;95866.06;;;4.41;100.00
12624;BME280;6377;42.836;23.998;2024-03-08T04:22:25;95870.91;;;4.36;100.00
12624;BME280;6377;42.836;23.998;2024-03-08T04:24:54;95879.84;;;4.34;100.00
12624;BME280;6377;42.836;23.998;2024-03-08T04:27:21;95877.63;;;4.29;100.00
12624;BME280;6377;42.836;23.998;2024-03-08T04:29:48;95883.97;;;4.27;100.00
12624;BME280;6377;42.836;23.998;2024-03-08T04:32:15;95878.03;;;4.25;100.00
12624;BME280;6377;42.836;23.998;2024-03-08T04:34:42;95891.25;;;4.23;100.00
12624;BME280;6377;42.836;23.998;2024-03-08T04:37:10;95894.13;;;4.20;100.00
12624;BME280;6377;42.836;23.998;2024-03-08T04:39:40;95891.50;;;4.11;100.00
12624;BME280;6377;42.836;23.998;2024-03-08T04:42:07;95876.78;;;3.79;100.00
12624;BME280;6377;42.836;23.998;2024-03-08T04:44:36;95899.63;;;4.08;100.00
12624;BME280;6377;42.836;23.998;2024-03-08T04:47:04;95899.25;;;4.22;100.00
12624;BME280;6377;42.836;23.998;2024-03-08T04:49:32;95894.16;;;4.30;100.00
12624;BME280;6377;42.836;23.998;2024-03-08T04:52:01;95894.84;;;4.32;100.00
12624;BME280;6377;42.836;23.998;2024-03-08T04:54:29;95901.56;;;4.15;100.00
12624;BME280;6377;42.836;23.998;2024-03-08T04:56:58;95860.72;;;3.84;100.00
12624;BME280;6377;42.836;23.998;2024-03-08T04:59:26;95905.66;;;3.99;100.00
12624;BME280;6377;42.836;23.998;2024-03-08T05:01:53;95906.66;;;4.07;100.00
12624;BME280;6377;42.836;23.998;2024-03-08T05:04:20;95909.41;;;4.15;100.00
12624;BME280;6377;42.836;23.998;2024-03-08T05:06:47;95909.03;;;4.29;100.00
12624;BME280;6377;42.836;23.998;2024-03-08T05:09:15;95890.28;;;4.24;100.00
12624;BME280;6377;42.836;23.998;2024-03-08T05:11:43;95914.00;;;4.32;100.00
12624;BME280;6377;42.836;23.998;2024-03-08T05:14:12;95909.50;;;4.34;100.00
12624;BME280;6377;42.836;23.998;2024-03-08T05:16:42;95923.94;;;4.38;100.00
12624;BME280;6377;42.836;23.998;2024-03-08T05:19:09;95926.88;;;4.45;100.00
12624;BME280;6377;42.836;23.998;2024-03-08T05:21:36;95930.69;;;4.41;100.00
12624;BME280;6377;42.836;23.998;2024-03-08T05:24:04;95932.88;;;4.26;100.00
12624;BME280;6377;42.836;23.998;2024-03-08T05:26:31;95938.41;;;4.33;100.00
12624;BME280;6377;42.836;23.998;2024-03-08T05:28:59;95937.72;;;4.31;100.00
12624;BME280;6377;42.836;23.998;2024-03-08T05:31:28;95930.13;;;4.28;100.00
12624;BME280;6377;42.836;23.998;2024-03-08T05:33:55;95951.91;;;4.28;100.00
12624;BME280;6377;42.836;23.998;2024-03-08T05:36:22;95951.09;;;3.97;100.00
12624;BME280;6377;42.836;23.998;2024-03-08T05:38:49;95951.94;;;3.98;100.00
12624;BME280;6377;42.836;23.998;2024-03-08T05:41:16;95955.63;;;3.95;100.00
12624;BME280;6377;42.836;23.998;2024-03-08T05:43:44;95952.34;;;4.03;100.00
12624;BME280;6377;42.836;23.998;2024-03-08T05:46:14;95949.56;;;3.95;100.00
12624;BME280;6377;42.836;23.998;2024-03-08T05:48:45;95961.22;;;4.12;100.00
12624;BME280;6377;42.836;23.998;2024-03-08T05:51:12;95961.81;;;4.25;100.00
12624;BME280;6377;42.836;23.998;2024-03-08T05:53:39;95892.31;;;4.02;100.00
12624;BME280;6377;42.836;23.998;2024-03-08T05:56:06;95962.69;;;4.44;100.00
12624;BME280;6377;42.836;23.998;2024-03-08T05:58:35;95965.47;;;4.52;100.00
12624;BME280;6377;42.836;23.998;2024-03-08T06:01:02;95969.50;;;4.57;100.00
12624;BME280;6377;42.836;23.998;2024-03-08T06:03:33;95971.94;;;4.58;100.00
12624;BME280;6377;42.836;23.998;2024-03-08T06:06:01;95973.09;;;4.65;100.00
12624;BME280;6377;42.836;23.998;2024-03-08T06:08:29;95970.63;;;4.64;100.00
12624;BME280;6377;42.836;23.998;2024-03-08T06:10:56;95961.66;;;4.26;100.00
12624;BME280;6377;42.836;23.998;2024-03-08T06:13:24;95979.06;;;4.27;100.00
12624;BME280;6377;42.836;23.998;2024-03-08T06:15:51;95980.41;;;4.22;100.00
12624;BME280;6377;42.836;23.998;2024-03-08T06:18:19;95977.63;;;4.14;100.00
12624;BME280;6377;42.836;23.998;2024-03-08T06:20:46;95985.13;;;4.28;100.00
12624;BME280;6377;42.836;23.998;2024-03-08T06:23:14;95981.97;;;4.34;100.00
12624;BME280;6377;42.836;23.998;2024-03-08T06:25:43;95984.59;;;4.34;100.00
12624;BME280;6377;42.836;23.998;2024-03-08T06:28:10;95983.88;;;4.32;100.00
12624;BME280;6377;42.836;23.998;2024-03-08T06:30:37;95985.69;;;4.31;100.00
12624;BME280;6377;42.836;23.998;2024-03-08T06:33:05;95983.84;;;4.22;100.00
12624;BME280;6377;42.836;23.998;2024-03-08T06:35:32;95983.97;;;4.21;100.00
12624;BME280;6377;42.836;23.998;2024-03-08T06:38:03;95964.75;;;4.01;100.00
12624;BME280;6377;42.836;23.998;2024-03-08T06:40:32;95992.81;;;4.20;100.00
12624;BME280;6377;42.836;23.998;2024-03-08T06:42:59;95987.16;;;4.24;100.00
12624;BME280;6377;42.836;23.998;2024-03-08T06:45:26;95987.06;;;4.35;100.00
12624;BME280;6377;42.836;23.998;2024-03-08T06:47:54;95991.66;;;4.43;100.00
12624;BME280;6377;42.836;23.998;2024-03-08T06:50:21;95951.66;;;4.31;100.00
12624;BME280;6377;42.836;23.998;2024-03-08T06:52:48;95991.28;;;4.57;100.00
12624;BME280;6377;42.836;23.998;2024-03-08T06:55:19;95995.00;;;4.64;100.00
12624;BME280;6377;42.836;23.998;2024-03-08T06:57:48;95998.19;;;4.68;100.00
12624;BME280;6377;42.836;23.998;2024-03-08T07:00:15;95995.41;;;4.60;100.00
12624;BME280;6377;42.836;23.998;2024-03-08T07:02:46;96000.13;;;4.66;100.00
12624;BME280;6377;42.836;23.998;2024-03-08T07:05:14;95997.66;;;4.74;100.00
12624;BME280;6377;42.836;23.998;2024-03-08T07:07:42;96003.72;;;4.74;100.00
12624;BME280;6377;42.836;23.998;2024-03-08T07:10:09;96003.56;;;4.76;100.00
12624;BME280;6377;42.836;23.998;2024-03-08T07:12:37;96004.28;;;4.78;100.00
12624;BME280;6377;42.836;23.998;2024-03-08T07:15:06;95972.06;;;4.47;100.00
12624;BME280;6377;42.836;23.998;2024-03-08T07:17:34;95983.25;;;4.49;100.00
12624;BME280;6377;42.836;23.998;2024-03-08T07:20:02;96004.63;;;4.54;100.00
12624;BME280;6377;42.836;23.998;2024-03-08T07:22:37;96008.75;;;4.47;100.00
12624;BME280;6377;42.836;23.998;2024-03-08T07:25:05;95961.47;;;4.09;100.00
12624;BME280;6377;42.836;23.998;2024-03-08T07:27:46;96004.88;;;4.41;100.00
12624;BME280;6377;42.836;23.998;2024-03-08T07:30:15;96009.31;;;4.50;100.00
12624;BME280;6377;42.836;23.998;2024-03-08T07:32:59;96006.72;;;4.70;100.00
12624;BME280;6377;42.836;23.998;2024-03-08T07:35:29;96014.22;;;4.84;100.00
12624;BME280;6377;42.836;23.998;2024-03-08T07:37:56;95972.41;;;4.73;100.00
12624;BME280;6377;42.836;23.998;2024-03-08T07:40:25;96012.47;;;5.03;100.00
12624;BME280;6377;42.836;23.998;2024-03-08T07:42:52;96010.13;;;5.10;100.00
12624;BME280;6377;42.836;23.998;2024-03-08T07:45:21;96010.69;;;5.14;100.00
12624;BME280;6377;42.836;23.998;2024-03-08T07:47:50;96018.53;;;5.23;100.00
12624;BME280;6377;42.836;23.998;2024-03-08T07:50:19;95990.25;;;5.17;100.00
12624;BME280;6377;42.836;23.998;2024-03-08T07:52:48;96015.09;;;5.42;100.00
12624;BME280;6377;42.836;23.998;2024-03-08T07:55:15;96014.28;;;5.51;100.00
12624;BME280;6377;42.836;23.998;2024-03-08T07:57:45;95994.81;;;5.44;100.00
12624;BME280;6377;42.836;23.998;2024-03-08T08:00:14;96015.91;;;5.71;100.00
12624;BME280;6377;42.836;23.998;2024-03-08T08:02:45;96017.41;;;5.74;100.00
12624;BME280;6377;42.836;23.998;2024-03-08T08:05:12;96016.63;;;5.63;100.00
12624;BME280;6377;42.836;23.998;2024-03-08T08:07:40;96021.44;;;5.58;100.00
12624;BME280;6377;42.836;23.998;2024-03-08T08:10:09;96024.78;;;5.60;100.00
12624;BME280;6377;42.836;23.998;2024-03-08T08:12:42;96025.19;;;5.27;100.00
12624;BME280;6377;42.836;23.998;2024-03-08T08:15:09;96027.25;;;5.33;100.00
12624;BME280;6377;42.836;23.998;2024-03-08T08:17:38;96038.69;;;5.23;100.00
12624;BME280;6377;42.836;23.998;2024-03-08T08:20:07;96027.53;;;5.30;100.00
12624;BME280;6377;42.836;23.998;2024-03-08T08:22:35;96030.13;;;5.21;100.00
12624;BME280;6377;42.836;23.998;2024-03-08T08:25:04;96028.91;;;5.25;100.00
12624;BME280;6377;42.836;23.998;2024-03-08T08:27:31;96032.47;;;5.04;100.00
12624;BME280;6377;42.836;23.998;2024-03-08T08:29:58;96028.72;;;4.97;100.00
12624;BME280;6377;42.836;23.998;2024-03-08T08:32:26;96004.28;;;4.87;100.00
12624;BME280;6377;42.836;23.998;2024-03-08T08:34:53;96029.41;;;4.99;100.00
12624;BME280;6377;42.836;23.998;2024-03-08T08:37:21;96031.09;;;5.00;100.00
12624;BME280;6377;42.836;23.998;2024-03-08T08:39:49;96035.50;;;5.09;100.00
12624;BME280;6377;42.836;23.998;2024-03-08T08:42:17;96035.09;;;5.14;100.00
12624;BME280;6377;42.836;23.998;2024-03-08T08:44:44;96024.31;;;5.17;100.00
12624;BME280;6377;42.836;23.998;2024-03-08T08:47:11;96037.59;;;5.35;100.00
12624;BME280;6377;42.836;23.998;2024-03-08T08:49:39;96039.13;;;5.28;100.00
12624;BME280;6377;42.836;23.998;2024-03-08T08:52:06;96036.06;;;5.23;100.00
12624;BME280;6377;42.836;23.998;2024-03-08T08:54:34;95997.28;;;4.97;100.00
12624;BME280;6377;42.836;23.998;2024-03-08T08:57:01;95986.22;;;4.94;100.00
12624;BME280;6377;42.836;23.998;2024-03-08T08:59:33;95999.66;;;5.10;100.00
12624;BME280;6377;42.836;23.998;2024-03-08T09:02:01;96026.28;;;5.25;100.00
12624;BME280;6377;42.836;23.998;2024-03-08T09:04:29;95985.41;;;5.03;100.00
12624;BME280;6377;42.836;23.998;2024-03-08T09:06:57;95993.69;;;5.08;100.00
12624;BME280;6377;42.836;23.998;2024-03-08T09:09:24;95993.84;;;5.06;100.00
12624;BME280;6377;42.836;23.998;2024-03-08T09:11:53;95999.38;;;5.13;100.00
12624;BME280;6377;42.836;23.998;2024-03-08T09:14:20;95998.81;;;5.09;100.00
12624;BME280;6377;42.836;23.998;2024-03-08T09:16:48;95991.19;;;4.97;100.00
12624;BME280;6377;42.836;23.998;2024-03-08T09:19:15;95996.47;;;5.06;100.00
12624;BME280;6377;42.836;23.998;2024-03-08T09:21:42;96036.66;;;5.45;100.00
12624;BME280;6377;42.836;23.998;2024-03-08T09:24:10;95992.72;;;5.09;100.00
12624;BME280;6377;42.836;23.998;2024-03-08T09:26:38;95991.22;;;5.16;100.00
12624;BME280;6377;42.836;23.998;2024-03-08T09:29:09;95995.22;;;5.20;100.00
12624;BME280;6377;42.836;23.998;2024-03-08T09:31:37;95999.25;;;5.34;100.00
12624;BME280;6377;42.836;23.998;2024-03-08T09:34:05;95988.88;;;5.32;100.00
12624;BME280;6377;42.836;23.998;2024-03-08T09:36:34;95992.72;;;5.47;100.00
12624;BME280;6377;42.836;23.998;2024-03-08T09:39:01;95988.88;;;5.51;100.00
12624;BME280;6377;42.836;23.998;2024-03-08T09:41:28;96038.84;;;5.98;100.00
12624;BME280;6377;42.836;23.998;2024-03-08T09:43:56;95985.94;;;5.64;100.00
12624;BME280;6377;42.836;23.998;2024-03-08T09:46:26;95996.72;;;5.61;100.00
12624;BME280;6377;42.836;23.998;2024-03-08T09:48:54;96039.94;;;5.47;100.00
12624;BME280;6377;42.836;23.998;2024-03-08T09:51:26;96046.16;;;5.27;100.00
12624;BME280;6377;42.836;23.998;2024-03-08T09:53:54;96040.50;;;5.22;100.00
12624;BME280;6377;42.836;23.998;2024-03-08T09:56:22;96037.72;;;5.24;100.00
12624;BME280;6377;42.836;23.998;2024-03-08T09:58:50;96048.09;;;5.35;100.00
12624;BME280;6377;42.836;23.998;2024-03-08T10:01:47;96045.72;;;5.32;100.00
12624;BME280;6377;42.836;23.998;2024-03-08T10:04:14;96047.69;;;5.39;100.00
12624;BME280;6377;42.836;23.998;2024-03-08T10:06:42;96045.88;;;5.49;100.00
12624;BME280;6377;42.836;23.998;2024-03-08T10:09:11;96046.16;;;5.56;100.00
12624;BME280;6377;42.836;23.998;2024-03-08T10:11:40;96034.16;;;5.63;100.00
12624;BME280;6377;42.836;23.998;2024-03-08T10:14:07;96037.06;;;5.60;100.00
12624;BME280;6377;42.836;23.998;2024-03-08T10:16:36;96048.09;;;5.63;100.00
12624;BME280;6377;42.836;23.998;2024-03-08T10:19:07;96005.72;;;5.39;100.00
12624;BME280;6377;42.836;23.998;2024-03-08T10:21:47;96027.63;;;5.67;100.00
12624;BME280;6377;42.836;23.998;2024-03-08T10:24:15;96028.88;;;5.73;100.00
12624;BME280;6377;42.836;23.998;2024-03-08T10:26:42;96034.00;;;5.64;100.00
12624;BME280;6377;42.836;23.998;2024-03-08T10:29:10;96031.66;;;5.71;100.00
12624;BME280;6377;42.836;23.998;2024-03-08T10:31:43;96027.78;;;5.75;100.00
12624;BME280;6377;42.836;23.998;2024-03-08T10:34:12;96037.72;;;5.81;100.00
12624;BME280;6377;42.836;23.998;2024-03-08T10:36:40;96033.31;;;5.72;100.00
12624;BME280;6377;42.836;23.998;2024-03-08T10:39:18;96037.63;;;5.63;100.00
12624;BME280;6377;42.836;23.998;2024-03-08T10:41:53;96035.66;;;5.65;100.00
12624;BME280;6377;42.836;23.998;2024-03-08T10:44:35;96038.56;;;5.53;100.00
12624;BME280;6377;42.836;23.998;2024-03-08T10:47:15;96032.91;;;5.29;100.00
12624;BME280;6377;42.836;23.998;2024-03-08T10:49:51;96032.91;;;5.19;100.00
12624;BME280;6377;42.836;23.998;2024-03-08T10:52:21;96030.56;;;5.16;100.00
12624;BME280;6377;42.836;23.998;2024-03-08T10:54:49;96017.13;;;5.00;100.00
12624;BME280;6377;42.836;23.998;2024-03-08T10:57:20;96022.25;;;5.01;100.00
12624;BME280;6377;42.836;23.998;2024-03-08T10:59:50;96021.41;;;4.91;100.00
12624;BME280;6377;42.836;23.998;2024-03-08T11:02:18;96023.34;;;4.89;100.00
12624;BME280;6377;42.836;23.998;2024-03-08T11:04:48;96015.88;;;4.85;100.00
12624;BME280;6377;42.836;23.998;2024-03-08T11:07:16;96027.06;;;4.96;100.00
12624;BME280;6377;42.836;23.998;2024-03-08T11:09:47;96016.22;;;5.11;100.00
12624;BME280;6377;42.836;23.998;2024-03-08T11:12:22;95987.75;;;4.96;100.00
12624;BME280;6377;42.836;23.998;2024-03-08T11:14:52;96018.41;;;5.25;100.00
12624;BME280;6377;42.836;23.998;2024-03-08T11:17:39;96013.44;;;5.22;100.00
12624;BME280;6377;42.836;23.998;2024-03-08T11:20:11;96014.13;;;5.24;100.00
12624;BME280;6377;42.836;23.998;2024-03-08T11:22:42;96010.94;;;5.01;100.00
12624;BME280;6377;42.836;23.998;2024-03-08T11:25:33;96002.94;;;4.93;100.00
12624;BME280;6377;42.836;23.998;2024-03-08T11:28:15;96018.78;;;4.91;100.00
12624;BME280;6377;42.836;23.998;2024-03-08T11:30:47;96018.94;;;4.90;100.00
12624;BME280;6377;42.836;23.998;2024-03-08T11:33:36;96013.69;;;4.99;100.00
12624;BME280;6377;42.836;23.998;2024-03-08T11:36:08;96013.81;;;4.88;100.00
12624;BME280;6377;42.836;23.998;2024-03-08T11:38:40;96002.09;;;4.83;100.00
12624;BME280;6377;42.836;23.998;2024-03-08T11:41:07;96015.06;;;4.94;100.00
12624;BME280;6377;42.836;23.998;2024-03-08T11:43:34;96007.63;;;4.99;100.00
12624;BME280;6377;42.836;23.998;2024-03-08T11:46:07;96004.16;;;5.08;100.00
12624;BME280;6377;42.836;23.998;2024-03-08T11:48:35;96009.69;;;5.05;100.00
12624;BME280;6377;42.836;23.998;2024-03-08T11:51:05;95994.81;;;4.96;100.00
12624;BME280;6377;42.836;23.998;2024-03-08T11:53:32;95995.06;;;5.02;100.00
12624;BME280;6377;42.836;23.998;2024-03-08T11:56:07;95975.75;;;4.84;100.00
12624;BME280;6377;42.836;23.998;2024-03-08T11:58:34;95990.50;;;4.95;100.00
12624;BME280;6377;42.836;23.998;2024-03-08T12:01:03;95996.31;;;4.98;100.00
12624;BME280;6377;42.836;23.998;2024-03-08T12:03:32;95983.31;;;4.87;100.00
12624;BME280;6377;42.836;23.998;2024-03-08T12:06:00;95988.84;;;4.94;100.00
12624;BME280;6377;42.836;23.998;2024-03-08T12:08:31;95989.00;;;5.12;100.00
12624;BME280;6377;42.836;23.998;2024-03-08T12:10:59;95975.88;;;5.02;100.00
12624;BME280;6377;42.836;23.998;2024-03-08T12:13:26;95983.78;;;5.21;100.00
12624;BME280;6377;42.836;23.998;2024-03-08T12:15:56;95983.75;;;5.40;100.00
12624;BME280;6377;42.836;23.998;2024-03-08T12:18:25;95986.94;;;5.44;100.00
12624;BME280;6377;42.836;23.998;2024-03-08T12:21:04;95985.81;;;5.46;100.00
12624;BME280;6377;42.836;23.998;2024-03-08T12:23:34;95987.59;;;5.55;100.00
12624;BME280;6377;42.836;23.998;2024-03-08T12:26:12;95963.16;;;5.55;100.00
12624;BME280;6377;42.836;23.998;2024-03-08T12:28:40;95982.91;;;5.78;100.00
12624;BME280;6377;42.836;23.998;2024-03-08T12:31:08;95985.38;;;5.89;100.00
12624;BME280;6377;42.836;23.998;2024-03-08T12:33:37;95988.28;;;5.96;100.00
12624;BME280;6377;42.836;23.998;2024-03-08T12:36:05;95981.47;;;6.03;100.00
12624;BME280;6377;42.836;23.998;2024-03-08T12:38:34;95984.63;;;6.06;100.00
12624;BME280;6377;42.836;23.998;2024-03-08T12:41:03;95985.31;;;6.08;100.00
12624;BME280;6377;42.836;23.998;2024-03-08T12:43:30;95987.38;;;6.05;100.00
12624;BME280;6377;42.836;23.998;2024-03-08T12:45:59;95964.94;;;6.20;100.00
12624;BME280;6377;42.836;23.998;2024-03-08T12:48:26;95979.78;;;6.48;100.00
12624;BME280;6377;42.836;23.998;2024-03-08T12:50:54;95976.81;;;6.34;100.00
12624;BME280;6377;42.836;23.998;2024-03-08T12:53:21;95970.84;;;6.04;100.00
12624;BME280;6377;42.836;23.998;2024-03-08T12:55:50;95968.66;;;5.90;100.00
12624;BME280;6377;42.836;23.998;2024-03-08T12:58:18;95970.88;;;5.85;100.00
12624;BME280;6377;42.836;23.998;2024-03-08T13:00:45;95971.97;;;5.83;100.00
12624;BME280;6377;42.836;23.998;2024-03-08T13:03:12;95970.00;;;5.85;100.00
12624;BME280;6377;42.836;23.998;2024-03-08T13:05:39;95971.69;;;5.95;100.00
12624;BME280;6377;42.836;23.998;2024-03-08T13:08:08;95963.81;;;5.66;100.00